Decoded Metar for LZZI (ZILINA in SLOVAKIA) (IATA:N/A) | Meteo·Mobile Aviation Weather
aviador You're here:

LZZI Decoded Metar

ZILINA in SLOVAKIA
Report Time2018-12-15 16:30:00
UTC Time2018-12-15 16:41:24
Flight Rules mvfr MVFR
Wind070° at 06 kt
W.Decomp.*RWY 06: 6.0 kt HW 0.7 kt RCW
W.Rank070° ranks 3
Current wind is above 070° avg. (4.5)
Visibility9999 m
Phenomena:N/A
Clouds:Overcast 022 Hf
Expected CloudBase > 1,200 ft AGL from Temp-Dew spread
Ceiling2,200 ft
Temp-2°C (ISA -15)
Dew Point-5°C (80% RH)
AAT-6.8°C
QNH1020 hPa
Density Alt-991 ft
Elevation1,020 ft
Report Wrong Elevation
Raw Report
LZZI 151630Z 07006KT 9999 OVC022 M02/M05 Q1020=

Extra information for LZZI:More info

Metar Taf Metar & Taf Last 4 Metars F.Rules Stats Wind Profile Meteogram Temp Stats Airport Information Weather charts Add Link Nearby VenuesMetar ALERT Operation Metar Decoded Social comments